MV Alemania — V2OG7 — position and weather

sailwx.info

Track history (hours):
 
Tides and Currents Weather Stations Pressure Air Temp Water Temp Dewpoint Dewpoint Depression Visibility Wind Speed Wind Dir Waves Ship Positions

MV Alemania

Last reported at 2015-Jan-23 03:14 UTC. Time now 2015-Jan-31 07:07 UTC.
Position N 36°25' E 023°13'.
Warning: this ship's position is 8 days out of date.

Length 133 m; draft 8.2 m.

Type: Cargo ship. MMSI: 304010613.

Date/timePositionNaut miles runAvg speedWind from/ knotsBaromVisibWave heightAir tempDewpointWater temp
2015-Jan-23 03:14N 36°25' E 023°13'66 9.8
2015-Jan-22 20:31N 37°27' E 023°41'1010.5
2015-Jan-22 19:33N 37°37' E 023°42'1010.0
2015-Jan-22 18:34N 37°47' E 023°38'7 7.0
2015-Jan-22 17:33N 37°52' E 023°33'1 0.8
2015-Jan-22 16:32N 37°52' E 023°32'0 0.1
2015-Jan-22 15:32N 37°52' E 023°32'0 0.0
2015-Jan-22 14:32N 37°52' E 023°32'0 0.0
2015-Jan-22 13:31N 37°52' E 023°32'0 0.0
2015-Jan-22 12:31N 37°52' E 023°32'0 0.0
2015-Jan-22 11:33N 37°52' E 023°32'0 0.0
2015-Jan-22 10:33N 37°52' E 023°32'0 0.1
2015-Jan-22 09:32N 37°52' E 023°32'0 0.0
2015-Jan-22 08:32N 37°52' E 023°32'0 0.0
2015-Jan-22 07:31N 37°52' E 023°32'0 0.0
2015-Jan-22 06:31N 37°52' E 023°32'0 0.0
2015-Jan-22 05:31N 37°52' E 023°32'0 0.0
2015-Jan-22 04:33N 37°52' E 023°32'0 0.1
2015-Jan-22 03:33N 37°52' E 023°32'0 0.1
2015-Jan-22 02:32N 37°52' E 023°32'0 0.0
2015-Jan-22 01:32N 37°52' E 023°32'0 0.1
2015-Jan-22 00:31N 37°52' E 023°32'0 0.1
2015-Jan-21 23:31N 37°52' E 023°32'0 0.0
2015-Jan-21 22:49N 37°52' E 023°32'0 0.1
2015-Jan-21 22:46N 37°52' E 023°32'0 0.1
2015-Jan-21 22:31N 37°52' E 023°32'0 0.0
2015-Jan-21 21:33N 37°52' E 023°32'0 0.0
2015-Jan-21 20:33N 37°52' E 023°32'0 0.0
2015-Jan-21 19:32N 37°52' E 023°32'0 0.0
2015-Jan-21 18:32N 37°52' E 023°32'0 0.0
2015-Jan-21 17:31N 37°52' E 023°32'0 0.1
2015-Jan-21 16:31N 37°52' E 023°32'0 0.0
2015-Jan-21 15:31N 37°52' E 023°32'0 0.0
2015-Jan-21 14:33N 37°52' E 023°32'0 0.0
2015-Jan-21 13:33N 37°52' E 023°32'0 0.0
2015-Jan-21 12:32N 37°52' E 023°32'0 0.0
2015-Jan-21 11:32N 37°52' E 023°32'0 0.0
2015-Jan-21 10:31N 37°52' E 023°32'0 0.0
2015-Jan-21 09:31N 37°52' E 023°32'0 0.0
2015-Jan-21 08:30N 37°52' E 023°32'0 0.0
2015-Jan-21 07:33N 37°52' E 023°32'0 0.0
2015-Jan-21 06:33N 37°52' E 023°32'0 0.0
2015-Jan-21 05:33N 37°52' E 023°32'0 0.1
2015-Jan-21 04:33N 37°52' E 023°32'2 2.1
2015-Jan-21 03:33N 37°53' E 023°34'4 4.1
2015-Jan-21 02:33N 37°57' E 023°36'0 0.0
2015-Jan-21 01:32N 37°57' E 023°36'0 0.0
2015-Jan-21 00:32N 37°57' E 023°36'0 0.0
2015-Jan-20 23:32N 37°57' E 023°36'0 0.0
2015-Jan-20 22:31N 37°57' E 023°36'0 0.0
2015-Jan-20 21:31N 37°57' E 023°36'0 0.0
2015-Jan-20 20:33N 37°57' E 023°36'0 0.0
2015-Jan-20 19:33N 37°57' E 023°36'0 0.0
2015-Jan-20 18:32N 37°57' E 023°36'0 0.0
2015-Jan-20 17:32N 37°57' E 023°36'0 0.0
2015-Jan-20 16:31N 37°57' E 023°36'0 0.0
2015-Jan-20 15:31N 37°57' E 023°36'0 0.0
2015-Jan-20 14:31N 37°57' E 023°36'0 0.0
2015-Jan-20 13:33N 37°57' E 023°36'0 0.0
2015-Jan-20 12:33N 37°57' E 023°36'0 0.0
2015-Jan-20 11:32N 37°57' E 023°36'0 0.0
2015-Jan-20 10:32N 37°57' E 023°36'0 0.0
2015-Jan-20 09:33N 37°57' E 023°36'0 0.0
2015-Jan-20 08:32N 37°57' E 023°36'0 0.0
2015-Jan-20 07:32N 37°57' E 023°36'0 0.0
2015-Jan-20 06:31N 37°57' E 023°36'0 0.0
2015-Jan-20 05:31N 37°57' E 023°36'0 0.0
2015-Jan-20 04:33N 37°57' E 023°36'0 0.0
2015-Jan-20 03:27N 37°57' E 023°36'0 0.0
2015-Jan-20 02:33N 37°57' E 023°36'0 0.0
2015-Jan-20 01:20N 37°57' E 023°36'0 0.0
2015-Jan-20 00:32N 37°57' E 023°36'0 0.0
2015-Jan-19 23:31N 37°57' E 023°36'0 0.0
2015-Jan-19 22:31N 37°57' E 023°36'0 0.0
2015-Jan-19 21:31N 37°57' E 023°36'0 0.0
2015-Jan-19 20:33N 37°57' E 023°36'0 0.0
2015-Jan-19 19:33N 37°57' E 023°36'0 0.0
2015-Jan-19 18:32N 37°57' E 023°36'0 0.0
2015-Jan-19 17:32N 37°57' E 023°36'0 0.0
2015-Jan-19 16:31N 37°57' E 023°36'0 0.0
2015-Jan-19 15:28N 37°57' E 023°36'1 1.3
2015-Jan-19 14:34N 37°56' E 023°36'2 2.1
2015-Jan-19 13:34N 37°54' E 023°35'1 1.0
2015-Jan-19 12:33N 37°55' E 023°36'5 4.6
2015-Jan-19 11:34N 37°50' E 023°35'3 3.2
2015-Jan-19 10:33N 37°54' E 023°35'1 1.4
2015-Jan-19 09:33N 37°52' E 023°35'2 1.7
2015-Jan-19 08:33N 37°54' E 023°34'6 5.8
2015-Jan-19 07:33N 37°60' E 023°33'3 0.3
2015-Jan-18 23:05N 38°02' E 023°31'0 0.0
2015-Jan-18 17:17N 38°02' E 023°31'0 0.0
2015-Jan-18 11:30N 38°02' E 023°31'0 0.0
2015-Jan-18 07:16N 38°02' E 023°31'0 0.0
2015-Jan-18 06:22N 38°02' E 023°31'0 0.0
2015-Jan-18 04:33N 38°02' E 023°31'0 0.0
2015-Jan-18 03:32N 38°02' E 023°31'0 0.0
2015-Jan-18 02:26N 38°02' E 023°31'0 0.0
2015-Jan-18 01:31N 38°02' E 023°31'0 0.0
2015-Jan-18 00:28N 38°02' E 023°32'0 0.0
2015-Jan-17 23:31N 38°02' E 023°31'0 0.0
2015-Jan-17 22:30N 38°02' E 023°31'0 0.0
2015-Jan-17 21:33N 38°02' E 023°31'0 0.0
2015-Jan-17 20:32N 38°02' E 023°31'0 0.0
2015-Jan-17 19:32N 38°02' E 023°32'0 0.0
2015-Jan-17 18:31N 38°02' E 023°31'0 0.0
2015-Jan-17 17:31N 38°02' E 023°31'0 0.1
2015-Jan-17 16:28N 38°02' E 023°32'0 0.0
2015-Jan-17 15:24N 38°02' E 023°32'0 0.0
2015-Jan-17 14:21N 38°02' E 023°31'0 0.0
2015-Jan-17 13:32N 38°02' E 023°31'0 0.0
2015-Jan-17 12:32N 38°02' E 023°31'0 0.0
2015-Jan-17 11:32N 38°02' E 023°31'0 0.0
2015-Jan-17 10:31N 38°02' E 023°31'0 0.0
2015-Jan-17 09:33N 38°02' E 023°31'0 0.0
2015-Jan-17 08:33N 38°02' E 023°31'0 0.1
2015-Jan-17 07:33N 38°02' E 023°31'0 0.0
2015-Jan-17 06:32N 38°02' E 023°31'0 0.0
2015-Jan-17 05:32N 38°02' E 023°32'0 0.0
2015-Jan-17 04:31N 38°02' E 023°32'0 0.1
2015-Jan-17 03:31N 38°02' E 023°31'0 0.0
2015-Jan-17 02:34N 38°02' E 023°31'0 0.0
2015-Jan-17 01:33N 38°02' E 023°32'0 0.1
2015-Jan-17 00:33N 38°02' E 023°31'0 0.1
2015-Jan-16 23:32N 38°02' E 023°32'0 0.0
2015-Jan-16 22:32N 38°02' E 023°31'0 0.0
2015-Jan-16 21:31N 38°02' E 023°31'0 0.0
2015-Jan-16 20:31N 38°02' E 023°31'0 0.0
2015-Jan-16 19:34N 38°02' E 023°31'0 0.0
2015-Jan-16 18:33N 38°02' E 023°32'0 0.0
2015-Jan-16 17:33N 38°02' E 023°32'0 0.0
2015-Jan-16 16:34N 38°02' E 023°32'0 0.1
2015-Jan-16 15:33N 38°02' E 023°31'0 0.0
2015-Jan-16 14:28N 38°02' E 023°31'0 0.0
2015-Jan-16 13:31N 38°02' E 023°31'0 0.0
2015-Jan-16 11:27N 38°02' E 023°32'0 0.2
2015-Jan-16 10:33N 38°02' E 023°31'0 0.1
2015-Jan-16 09:33N 38°02' E 023°32'0 0.0
2015-Jan-16 08:33N 38°02' E 023°32'0 0.0
2015-Jan-16 07:32N 38°02' E 023°32'0 0.0
2015-Jan-16 06:26N 38°02' E 023°32'0 0.0
2015-Jan-16 05:31N 38°02' E 023°32'0 0.0
2015-Jan-16 04:31N 38°02' E 023°32'0 0.0
2015-Jan-16 03:28N 38°02' E 023°32'0 0.0
2015-Jan-16 02:33N 38°02' E 023°32'0 0.0
2015-Jan-16 01:30N 38°02' E 023°32'0 0.0
2015-Jan-16 00:29N 38°02' E 023°32'0 0.0
2015-Jan-15 23:29N 38°02' E 023°32'0 0.0
2015-Jan-15 22:32N 38°02' E 023°32'0 0.0
2015-Jan-15 21:31N 38°02' E 023°32'0 0.0
2015-Jan-15 20:31N 38°02' E 023°32'0 0.0
2015-Jan-15 19:33N 38°02' E 023°32'0 0.0
2015-Jan-15 18:33N 38°02' E 023°32'0 0.0
2015-Jan-15 17:29N 38°02' E 023°32'0 0.0
2015-Jan-15 16:32N 38°02' E 023°32'0 0.0
2015-Jan-15 15:31N 38°02' E 023°32'0 0.0
2015-Jan-15 14:28N 38°02' E 023°32'0 0.0
2015-Jan-15 13:31N 38°02' E 023°32'0 0.0
2015-Jan-15 12:33N 38°02' E 023°32'0 0.0
2015-Jan-15 11:33N 38°02' E 023°32'0 0.0
2015-Jan-15 10:32N 38°02' E 023°32'0 0.0
2015-Jan-15 09:32N 38°02' E 023°32'0 0.0
2015-Jan-15 08:28N 38°02' E 023°32'0 0.0
2015-Jan-15 07:31N 38°02' E 023°32'0 0.0
2015-Jan-15 06:34N 38°02' E 023°32'0 0.0
2015-Jan-15 05:33N 38°02' E 023°32'0 0.0
2015-Jan-15 04:33N 38°02' E 023°32'0 0.0
2015-Jan-15 03:32N 38°02' E 023°32'0 0.0
2015-Jan-15 02:32N 38°02' E 023°32'0 0.0
2015-Jan-15 01:31N 38°02' E 023°32'0 0.0
2015-Jan-15 00:31N 38°02' E 023°32'0 0.0
2015-Jan-14 23:34N 38°02' E 023°32'0 0.0
2015-Jan-14 22:33N 38°02' E 023°32'0 0.0
2015-Jan-14 21:33N 38°02' E 023°32'0 0.0
2015-Jan-14 20:32N 38°02' E 023°32'0 0.0
2015-Jan-14 19:32N 38°02' E 023°32'0 0.0
2015-Jan-14 18:31N 38°02' E 023°32'0 0.0
2015-Jan-14 17:31N 38°02' E 023°32'0 0.0
2015-Jan-14 16:33N 38°02' E 023°32'0 0.0
2015-Jan-14 15:30N 38°02' E 023°32'0 0.0
2015-Jan-14 14:33N 38°02' E 023°32'0 0.0
2015-Jan-14 13:32N 38°02' E 023°32'0 0.0
2015-Jan-14 12:32N 38°02' E 023°32'0 0.0
2015-Jan-14 11:31N 38°02' E 023°32'0 0.0
2015-Jan-14 10:31N 38°02' E 023°32'0 0.0
2015-Jan-14 09:33N 38°02' E 023°32'0 0.0
2015-Jan-14 08:33N 38°02' E 023°32'0 0.0
2015-Jan-14 07:30N 38°02' E 023°32'0 0.0
2015-Jan-14 06:32N 38°02' E 023°32'0 0.0
2015-Jan-14 05:32N 38°02' E 023°32'0 0.0
2015-Jan-14 04:31N 38°02' E 023°32'0 0.0
2015-Jan-14 03:31N 38°02' E 023°32'0 0.0
2015-Jan-14 02:31N 38°02' E 023°32'0 0.0
2015-Jan-14 01:33N 38°02' E 023°32'0 0.0
2015-Jan-14 00:33N 38°02' E 023°32'0 0.0
2015-Jan-13 23:32N 38°02' E 023°32'0 0.0
2015-Jan-13 22:32N 38°02' E 023°32'0 0.0
2015-Jan-13 21:31N 38°02' E 023°32'0 0.0
2015-Jan-13 20:31N 38°02' E 023°32'0 0.0
2015-Jan-13 19:30N 38°02' E 023°32'0 0.1
2015-Jan-13 18:33N 38°02' E 023°32'0 0.0
2015-Jan-13 17:30N 38°02' E 023°32'0 0.0
2015-Jan-13 16:32N 38°02' E 023°32'0 0.0
2015-Jan-13 15:32N 38°02' E 023°32'0 0.1
2015-Jan-13 14:31N 38°02' E 023°32'1 0.8
2015-Jan-13 13:34N 38°02' E 023°32'5 5.3
2015-Jan-13 12:33N 37°57' E 023°35'3 2.5
2015-Jan-13 11:34N 37°54' E 023°36'1 1.4
2015-Jan-13 10:34N 37°54' E 023°35'1 0.8
2015-Jan-13 09:34N 37°53' E 023°35'1 0.7
2015-Jan-13 08:34N 37°53' E 023°36'0 0.2
2015-Jan-13 07:33N 37°53' E 023°36'2 1.5
2015-Jan-13 06:31N 37°52' E 023°34'2 1.8
2015-Jan-13 05:34N 37°54' E 023°36'1 1.0
2015-Jan-13 04:33N 37°53' E 023°35'0 0.2
2015-Jan-13 03:33N 37°52' E 023°36'  
Track history (hours):
 
Tides and Currents Weather Stations Pressure Air Temp Water Temp Dewpoint Dewpoint Depression Visibility Wind Speed Wind Dir Waves Ship Positions

MV Alemania

Last reported at 2015-Jan-23 03:14 UTC. Time now 2015-Jan-31 07:07 UTC.
Position N 36°25' E 023°13'.
Warning: this ship's position is 8 days out of date.

Length 133 m; draft 8.2 m.

Type: Cargo ship. MMSI: 304010613.

Date/timePositionNaut miles runAvg speedWind from/ knotsBaromVisibWave heightAir tempDewpointWater temp
2015-Jan-23 03:14N 36°25' E 023°13'66 9.8
2015-Jan-22 20:31N 37°27' E 023°41'1010.5
2015-Jan-22 19:33N 37°37' E 023°42'1010.0
2015-Jan-22 18:34N 37°47' E 023°38'7 7.0
2015-Jan-22 17:33N 37°52' E 023°33'1 0.8
2015-Jan-22 16:32N 37°52' E 023°32'0 0.1
2015-Jan-22 15:32N 37°52' E 023°32'0 0.0
2015-Jan-22 14:32N 37°52' E 023°32'0 0.0
2015-Jan-22 13:31N 37°52' E 023°32'0 0.0
2015-Jan-22 12:31N 37°52' E 023°32'0 0.0
2015-Jan-22 11:33N 37°52' E 023°32'0 0.0
2015-Jan-22 10:33N 37°52' E 023°32'0 0.1
2015-Jan-22 09:32N 37°52' E 023°32'0 0.0
2015-Jan-22 08:32N 37°52' E 023°32'0 0.0
2015-Jan-22 07:31N 37°52' E 023°32'0 0.0
2015-Jan-22 06:31N 37°52' E 023°32'0 0.0
2015-Jan-22 05:31N 37°52' E 023°32'0 0.0
2015-Jan-22 04:33N 37°52' E 023°32'0 0.1
2015-Jan-22 03:33N 37°52' E 023°32'0 0.1
2015-Jan-22 02:32N 37°52' E 023°32'0 0.0
2015-Jan-22 01:32N 37°52' E 023°32'0 0.1
2015-Jan-22 00:31N 37°52' E 023°32'0 0.1
2015-Jan-21 23:31N 37°52' E 023°32'0 0.0
2015-Jan-21 22:49N 37°52' E 023°32'0 0.1
2015-Jan-21 22:46N 37°52' E 023°32'0 0.1
2015-Jan-21 22:31N 37°52' E 023°32'0 0.0
2015-Jan-21 21:33N 37°52' E 023°32'0 0.0
2015-Jan-21 20:33N 37°52' E 023°32'0 0.0
2015-Jan-21 19:32N 37°52' E 023°32'0 0.0
2015-Jan-21 18:32N 37°52' E 023°32'0 0.0
2015-Jan-21 17:31N 37°52' E 023°32'0 0.1
2015-Jan-21 16:31N 37°52' E 023°32'0 0.0
2015-Jan-21 15:31N 37°52' E 023°32'0 0.0
2015-Jan-21 14:33N 37°52' E 023°32'0 0.0
2015-Jan-21 13:33N 37°52' E 023°32'0 0.0
2015-Jan-21 12:32N 37°52' E 023°32'0 0.0
2015-Jan-21 11:32N 37°52' E 023°32'0 0.0
2015-Jan-21 10:31N 37°52' E 023°32'0 0.0
2015-Jan-21 09:31N 37°52' E 023°32'0 0.0
2015-Jan-21 08:30N 37°52' E 023°32'0 0.0
2015-Jan-21 07:33N 37°52' E 023°32'0 0.0
2015-Jan-21 06:33N 37°52' E 023°32'0 0.0
2015-Jan-21 05:33N 37°52' E 023°32'0 0.1
2015-Jan-21 04:33N 37°52' E 023°32'2 2.1
2015-Jan-21 03:33N 37°53' E 023°34'4 4.1
2015-Jan-21 02:33N 37°57' E 023°36'0 0.0
2015-Jan-21 01:32N 37°57' E 023°36'0 0.0
2015-Jan-21 00:32N 37°57' E 023°36'0 0.0
2015-Jan-20 23:32N 37°57' E 023°36'0 0.0
2015-Jan-20 22:31N 37°57' E 023°36'0 0.0
2015-Jan-20 21:31N 37°57' E 023°36'0 0.0
2015-Jan-20 20:33N 37°57' E 023°36'0 0.0
2015-Jan-20 19:33N 37°57' E 023°36'0 0.0
2015-Jan-20 18:32N 37°57' E 023°36'0 0.0
2015-Jan-20 17:32N 37°57' E 023°36'0 0.0
2015-Jan-20 16:31N 37°57' E 023°36'0 0.0
2015-Jan-20 15:31N 37°57' E 023°36'0 0.0
2015-Jan-20 14:31N 37°57' E 023°36'0 0.0
2015-Jan-20 13:33N 37°57' E 023°36'0 0.0
2015-Jan-20 12:33N 37°57' E 023°36'0 0.0
2015-Jan-20 11:32N 37°57' E 023°36'0 0.0
2015-Jan-20 10:32N 37°57' E 023°36'0 0.0
2015-Jan-20 09:33N 37°57' E 023°36'0 0.0
2015-Jan-20 08:32N 37°57' E 023°36'0 0.0
2015-Jan-20 07:32N 37°57' E 023°36'0 0.0
2015-Jan-20 06:31N 37°57' E 023°36'0 0.0
2015-Jan-20 05:31N 37°57' E 023°36'0 0.0
2015-Jan-20 04:33N 37°57' E 023°36'0 0.0
2015-Jan-20 03:27N 37°57' E 023°36'0 0.0
2015-Jan-20 02:33N 37°57' E 023°36'0 0.0
2015-Jan-20 01:20N 37°57' E 023°36'0 0.0
2015-Jan-20 00:32N 37°57' E 023°36'0 0.0
2015-Jan-19 23:31N 37°57' E 023°36'0 0.0
2015-Jan-19 22:31N 37°57' E 023°36'0 0.0
2015-Jan-19 21:31N 37°57' E 023°36'0 0.0
2015-Jan-19 20:33N 37°57' E 023°36'0 0.0
2015-Jan-19 19:33N 37°57' E 023°36'0 0.0
2015-Jan-19 18:32N 37°57' E 023°36'0 0.0
2015-Jan-19 17:32N 37°57' E 023°36'0 0.0
2015-Jan-19 16:31N 37°57' E 023°36'0 0.0
2015-Jan-19 15:28N 37°57' E 023°36'1 1.3
2015-Jan-19 14:34N 37°56' E 023°36'2 2.1
2015-Jan-19 13:34N 37°54' E 023°35'1 1.0
2015-Jan-19 12:33N 37°55' E 023°36'5 4.6
2015-Jan-19 11:34N 37°50' E 023°35'3 3.2
2015-Jan-19 10:33N 37°54' E 023°35'1 1.4
2015-Jan-19 09:33N 37°52' E 023°35'2 1.7
2015-Jan-19 08:33N 37°54' E 023°34'6 5.8
2015-Jan-19 07:33N 37°60' E 023°33'3 0.3
2015-Jan-18 23:05N 38°02' E 023°31'0 0.0
2015-Jan-18 17:17N 38°02' E 023°31'0 0.0
2015-Jan-18 11:30N 38°02' E 023°31'0 0.0
2015-Jan-18 07:16N 38°02' E 023°31'0 0.0
2015-Jan-18 06:22N 38°02' E 023°31'0 0.0
2015-Jan-18 04:33N 38°02' E 023°31'0 0.0
2015-Jan-18 03:32N 38°02' E 023°31'0 0.0
2015-Jan-18 02:26N 38°02' E 023°31'0 0.0
2015-Jan-18 01:31N 38°02' E 023°31'0 0.0
2015-Jan-18 00:28N 38°02' E 023°32'0 0.0
2015-Jan-17 23:31N 38°02' E 023°31'0 0.0
2015-Jan-17 22:30N 38°02' E 023°31'0 0.0
2015-Jan-17 21:33N 38°02' E 023°31'0 0.0
2015-Jan-17 20:32N 38°02' E 023°31'0 0.0
2015-Jan-17 19:32N 38°02' E 023°32'0 0.0
2015-Jan-17 18:31N 38°02' E 023°31'0 0.0
2015-Jan-17 17:31N 38°02' E 023°31'0 0.1
2015-Jan-17 16:28N 38°02' E 023°32'0 0.0
2015-Jan-17 15:24N 38°02' E 023°32'0 0.0
2015-Jan-17 14:21N 38°02' E 023°31'0 0.0
2015-Jan-17 13:32N 38°02' E 023°31'0 0.0
2015-Jan-17 12:32N 38°02' E 023°31'0 0.0
2015-Jan-17 11:32N 38°02' E 023°31'0 0.0
2015-Jan-17 10:31N 38°02' E 023°31'0 0.0
2015-Jan-17 09:33N 38°02' E 023°31'0 0.0
2015-Jan-17 08:33N 38°02' E 023°31'0 0.1
2015-Jan-17 07:33N 38°02' E 023°31'0 0.0
2015-Jan-17 06:32N 38°02' E 023°31'0 0.0
2015-Jan-17 05:32N 38°02' E 023°32'0 0.0
2015-Jan-17 04:31N 38°02' E 023°32'0 0.1
2015-Jan-17 03:31N 38°02' E 023°31'0 0.0
2015-Jan-17 02:34N 38°02' E 023°31'0 0.0
2015-Jan-17 01:33N 38°02' E 023°32'0 0.1
2015-Jan-17 00:33N 38°02' E 023°31'0 0.1
2015-Jan-16 23:32N 38°02' E 023°32'0 0.0
2015-Jan-16 22:32N 38°02' E 023°31'0 0.0
2015-Jan-16 21:31N 38°02' E 023°31'0 0.0
2015-Jan-16 20:31N 38°02' E 023°31'0 0.0
2015-Jan-16 19:34N 38°02' E 023°31'0 0.0
2015-Jan-16 18:33N 38°02' E 023°32'0 0.0
2015-Jan-16 17:33N 38°02' E 023°32'0 0.0
2015-Jan-16 16:34N 38°02' E 023°32'0 0.1
2015-Jan-16 15:33N 38°02' E 023°31'0 0.0
2015-Jan-16 14:28N 38°02' E 023°31'0 0.0
2015-Jan-16 13:31N 38°02' E 023°31'0 0.0
2015-Jan-16 11:27N 38°02' E 023°32'0 0.2
2015-Jan-16 10:33N 38°02' E 023°31'0 0.1
2015-Jan-16 09:33N 38°02' E 023°32'0 0.0
2015-Jan-16 08:33N 38°02' E 023°32'0 0.0
2015-Jan-16 07:32N 38°02' E 023°32'0 0.0
2015-Jan-16 06:26N 38°02' E 023°32'0 0.0
2015-Jan-16 05:31N 38°02' E 023°32'0 0.0
2015-Jan-16 04:31N 38°02' E 023°32'0 0.0
2015-Jan-16 03:28N 38°02' E 023°32'0 0.0
2015-Jan-16 02:33N 38°02' E 023°32'0 0.0
2015-Jan-16 01:30N 38°02' E 023°32'0 0.0
2015-Jan-16 00:29N 38°02' E 023°32'0 0.0
2015-Jan-15 23:29N 38°02' E 023°32'0 0.0
2015-Jan-15 22:32N 38°02' E 023°32'0 0.0
2015-Jan-15 21:31N 38°02' E 023°32'0 0.0
2015-Jan-15 20:31N 38°02' E 023°32'0 0.0
2015-Jan-15 19:33N 38°02' E 023°32'0 0.0
2015-Jan-15 18:33N 38°02' E 023°32'0 0.0
2015-Jan-15 17:29N 38°02' E 023°32'0 0.0
2015-Jan-15 16:32N 38°02' E 023°32'0 0.0
2015-Jan-15 15:31N 38°02' E 023°32'0 0.0
2015-Jan-15 14:28N 38°02' E 023°32'0 0.0
2015-Jan-15 13:31N 38°02' E 023°32'0 0.0
2015-Jan-15 12:33N 38°02' E 023°32'0 0.0
2015-Jan-15 11:33N 38°02' E 023°32'0 0.0
2015-Jan-15 10:32N 38°02' E 023°32'0 0.0
2015-Jan-15 09:32N 38°02' E 023°32'0 0.0
2015-Jan-15 08:28N 38°02' E 023°32'0 0.0
2015-Jan-15 07:31N 38°02' E 023°32'0 0.0
2015-Jan-15 06:34N 38°02' E 023°32'0 0.0
2015-Jan-15 05:33N 38°02' E 023°32'0 0.0
2015-Jan-15 04:33N 38°02' E 023°32'0 0.0
2015-Jan-15 03:32N 38°02' E 023°32'0 0.0
2015-Jan-15 02:32N 38°02' E 023°32'0 0.0
2015-Jan-15 01:31N 38°02' E 023°32'0 0.0
2015-Jan-15 00:31N 38°02' E 023°32'0 0.0
2015-Jan-14 23:34N 38°02' E 023°32'0 0.0
2015-Jan-14 22:33N 38°02' E 023°32'0 0.0
2015-Jan-14 21:33N 38°02' E 023°32'0 0.0
2015-Jan-14 20:32N 38°02' E 023°32'0 0.0
2015-Jan-14 19:32N 38°02' E 023°32'0 0.0
2015-Jan-14 18:31N 38°02' E 023°32'0 0.0
2015-Jan-14 17:31N 38°02' E 023°32'0 0.0
2015-Jan-14 16:33N 38°02' E 023°32'0 0.0
2015-Jan-14 15:30N 38°02' E 023°32'0 0.0
2015-Jan-14 14:33N 38°02' E 023°32'0 0.0
2015-Jan-14 13:32N 38°02' E 023°32'0 0.0
2015-Jan-14 12:32N 38°02' E 023°32'0 0.0
2015-Jan-14 11:31N 38°02' E 023°32'0 0.0
2015-Jan-14 10:31N 38°02' E 023°32'0 0.0
2015-Jan-14 09:33N 38°02' E 023°32'0 0.0
2015-Jan-14 08:33N 38°02' E 023°32'0 0.0
2015-Jan-14 07:30N 38°02' E 023°32'0 0.0
2015-Jan-14 06:32N 38°02' E 023°32'0 0.0
2015-Jan-14 05:32N 38°02' E 023°32'0 0.0
2015-Jan-14 04:31N 38°02' E 023°32'0 0.0
2015-Jan-14 03:31N 38°02' E 023°32'0 0.0
2015-Jan-14 02:31N 38°02' E 023°32'0 0.0
2015-Jan-14 01:33N 38°02' E 023°32'0 0.0
2015-Jan-14 00:33N 38°02' E 023°32'0 0.0
2015-Jan-13 23:32N 38°02' E 023°32'0 0.0
2015-Jan-13 22:32N 38°02' E 023°32'0 0.0
2015-Jan-13 21:31N 38°02' E 023°32'0 0.0
2015-Jan-13 20:31N 38°02' E 023°32'0 0.0
2015-Jan-13 19:30N 38°02' E 023°32'0 0.1
2015-Jan-13 18:33N 38°02' E 023°32'0 0.0
2015-Jan-13 17:30N 38°02' E 023°32'0 0.0
2015-Jan-13 16:32N 38°02' E 023°32'0 0.0
2015-Jan-13 15:32N 38°02' E 023°32'0 0.1
2015-Jan-13 14:31N 38°02' E 023°32'1 0.8
2015-Jan-13 13:34N 38°02' E 023°32'5 5.3
2015-Jan-13 12:33N 37°57' E 023°35'3 2.5
2015-Jan-13 11:34N 37°54' E 023°36'1 1.4
2015-Jan-13 10:34N 37°54' E 023°35'1 0.8
2015-Jan-13 09:34N 37°53' E 023°35'1 0.7
2015-Jan-13 08:34N 37°53' E 023°36'0 0.2
2015-Jan-13 07:33N 37°53' E 023°36'2 1.5
2015-Jan-13 06:31N 37°52' E 023°34'2 1.8
2015-Jan-13 05:34N 37°54' E 023°36'1 1.0
2015-Jan-13 04:33N 37°53' E 023°35'0 0.2
2015-Jan-13 03:33N 37°52' E 023°36'  

Dump ship's entire track history